SDJ weather

Sendai Airport
Sendai, Miyagi Prefecture, Japan

Public forecast

Using degrees Celsius for public forecast. Weather courtesy of forecast.io.

METAR (pilot weather report)

Retrieved 2019/04/25 00:00 UTC (6 minutes ago):

RJSS 250000Z 06003KT 360V120 3000 BR FEW001 SCT015 BKN020 16/15 Q1003

TAF (pilot weather forecast)

Forecast is more than 12 hours old.

Retrieved 2019/04/24 00:30 UTC (24 hours ago):

TAF TAF RJSS 242306Z 2500/2606 09004KT 3000 -SHRA BR FEW010 SCT020 BKN030 TEMPO 2500/2503 1500 -SHRA BR FEW002 BKN005 BKN008 BECMG 2503/2505 8000 -RA TEMPO 2512/2521 4000 -RA BR FEW003 BKN008 BKN015